Time,TemperatureF,DewpointF,PressureIn,WindDirection,WindDirectionDegrees,WindSpeedMPH,WindSpeedGustMPH,Humidity,HourlyPrecipIn,Conditions,Clouds,dailyrainin,SolarRadiationWatts/m^2,SoftwareType,DateUTC
2013-07-29 00:02:00,68.0,65.0,30.00,SSE,159,2.0,3.0,91,0.00,,,0.03,0.000000,,2013-07-29 04:02:00,
2013-07-29 00:12:00,68.0,65.0,30.00,SSE,159,2.0,3.0,91,0.00,,,0.03,0.000000,,2013-07-29 04:12:00,
2013-07-29 00:22:00,68.0,65.0,30.00,North,3,1.0,3.0,91,0.00,,,0.03,0.000000,,2013-07-29 04:22:00,
2013-07-29 00:43:00,68.0,66.0,30.03,West,268,4.0,5.0,92,0.12,,,0.15,0.000000,,2013-07-29 04:43:00,
2013-07-29 00:53:00,67.0,65.0,30.03,SW,231,4.0,7.0,92,0.21,,,0.24,0.000000,,2013-07-29 04:53:00,
2013-07-29 01:02:00,67.0,64.0,30.03,WSW,253,3.0,4.0,91,0.23,,,0.26,0.000000,,2013-07-29 05:02:00,
2013-07-29 01:12:00,67.0,64.0,30.02,SSW,211,1.0,2.0,91,0.24,,,0.27,0.000000,,2013-07-29 05:12:00,
2013-07-29 01:43:00,67.0,64.0,30.01,WSW,252,0.0,1.0,91,0.12,,,0.27,0.000000,,2013-07-29 05:43:00,
2013-07-29 01:53:00,67.0,64.0,30.01,NW,314,2.0,3.0,91,0.03,,,0.27,0.000000,,2013-07-29 05:53:00,
2013-07-29 02:02:00,66.0,64.0,30.01,WSW,254,0.0,1.0,92,0.00,,,0.27,0.000000,,2013-07-29 06:02:00,
2013-07-29 02:22:00,66.0,64.0,30.01,NNE,33,1.0,1.0,92,0.00,,,0.27,0.000000,,2013-07-29 06:22:00,
2013-07-29 02:43:00,66.0,64.0,30.01,West,270,1.0,1.0,92,0.00,,,0.27,0.000000,,2013-07-29 06:43:00,
2013-07-29 02:52:00,66.0,64.0,30.02,South,188,1.0,2.0,92,0.00,,,0.27,0.000000,,2013-07-29 06:52:00,
2013-07-29 03:03:00,66.0,64.0,30.03,SSW,194,3.0,4.0,92,0.00,,,0.27,0.000000,,2013-07-29 07:03:00,
2013-07-29 03:12:00,66.0,64.0,30.03,SW,234,2.0,3.0,93,0.00,,,0.27,0.000000,,2013-07-29 07:12:00,
2013-07-29 03:23:00,66.0,64.0,30.01,NNE,32,2.0,3.0,93,0.00,,,0.27,0.000000,,2013-07-29 07:23:00,
2013-07-29 03:33:00,65.0,63.0,30.02,North,0,0.0,0.0,93,0.00,,,0.27,0.000000,,2013-07-29 07:33:00,
2013-07-29 03:43:00,65.0,63.0,30.02,WSW,256,0.0,0.0,93,0.00,,,0.27,0.000000,,2013-07-29 07:43:00,
2013-07-29 03:53:00,65.0,63.0,30.03,SSW,199,0.0,1.0,93,0.00,,,0.27,0.000000,,2013-07-29 07:53:00,
2013-07-29 04:02:00,65.0,63.0,30.02,NW,325,1.0,2.0,93,0.00,,,0.27,0.000000,,2013-07-29 08:02:00,
2013-07-29 04:12:00,64.0,62.0,30.03,NW,321,3.0,4.0,93,0.00,,,0.27,0.000000,,2013-07-29 08:12:00,
2013-07-29 04:22:00,64.0,62.0,30.03,NW,325,2.0,3.0,93,0.00,,,0.27,0.000000,,2013-07-29 08:22:00,
2013-07-29 04:33:00,64.0,62.0,30.03,NNW,329,3.0,5.0,93,0.00,,,0.27,0.000000,,2013-07-29 08:33:00,
2013-07-29 04:42:00,64.0,62.0,30.03,NNW,331,4.0,6.0,92,0.00,,,0.27,0.000000,,2013-07-29 08:42:00,
2013-07-29 04:52:00,64.0,62.0,30.03,NNW,335,4.0,5.0,92,0.00,,,0.27,0.000000,,2013-07-29 08:52:00,
2013-07-29 05:02:00,64.0,61.0,30.03,NW,322,6.0,9.0,90,0.00,,,0.27,0.000000,,2013-07-29 09:02:00,
2013-07-29 05:12:00,64.0,60.0,30.03,NNW,335,8.0,11.0,86,0.00,,,0.27,0.000000,,2013-07-29 09:12:00,
2013-07-29 05:22:00,64.0,59.0,30.03,NNW,340,5.0,7.0,83,0.00,,,0.27,0.000000,,2013-07-29 09:22:00,
2013-07-29 05:33:00,64.0,59.0,30.03,NNW,336,5.0,9.0,84,0.00,,,0.27,0.000000,,2013-07-29 09:33:00,
2013-07-29 05:43:00,64.0,58.0,30.04,NNW,332,6.0,9.0,82,0.00,,,0.27,0.000000,,2013-07-29 09:43:00,
2013-07-29 05:53:00,64.0,58.0,30.04,NW,326,6.0,8.0,82,0.00,,,0.27,0.000000,,2013-07-29 09:53:00,
2013-07-29 06:04:00,64.0,58.0,30.04,NNW,334,6.0,8.0,81,0.00,,,0.27,0.000000,,2013-07-29 10:04:00,
2013-07-29 06:25:00,63.0,56.0,30.05,NNW,334,6.0,9.0,79,0.00,,,0.27,4.000000,,2013-07-29 10:25:00,
2013-07-29 06:37:00,63.0,57.0,30.05,NNW,336,4.0,7.0,80,0.00,,,0.27,2.000000,,2013-07-29 10:37:00,
2013-07-29 06:48:00,63.0,56.0,30.06,NNW,345,5.0,8.0,78,0.00,,,0.27,30.000000,,2013-07-29 10:48:00,
2013-07-29 06:54:00,63.0,56.0,30.06,NNW,328,4.0,7.0,79,0.00,,,0.27,52.000000,,2013-07-29 10:54:00,
2013-07-29 07:38:00,64.0,56.0,30.06,NNW,338,6.0,10.0,76,0.00,,,0.27,58.000000,,2013-07-29 11:38:00,
2013-07-29 07:57:00,64.0,56.0,30.07,NNW,338,5.0,8.0,74,0.00,,,0.27,88.000000,,2013-07-29 11:57:00,
2013-07-29 08:17:00,65.0,56.0,30.07,NNW,341,6.0,8.0,72,0.00,,,0.27,270.000000,,2013-07-29 12:17:00,
2013-07-29 08:28:00,65.0,56.0,30.08,NNW,347,6.0,8.0,72,0.00,,,0.27,278.000000,,2013-07-29 12:28:00,
2013-07-29 08:36:00,65.0,55.0,30.09,NNW,336,5.0,8.0,70,0.00,,,0.27,212.000000,,2013-07-29 12:36:00,
2013-07-29 08:55:00,66.0,55.0,30.09,North,352,5.0,10.0,67,0.00,,,0.27,345.000000,,2013-07-29 12:55:00,
2013-07-29 09:17:00,66.0,54.0,30.09,NNW,345,5.0,9.0,65,0.00,,,0.27,383.000000,,2013-07-29 13:17:00,
2013-07-29 09:28:00,67.0,55.0,30.09,NNW,346,4.0,8.0,65,0.00,,,0.27,394.000000,,2013-07-29 13:28:00,
2013-07-29 10:07:00,68.0,53.0,30.10,North,352,7.0,11.0,59,0.00,,,0.27,534.000000,,2013-07-29 14:07:00,
2013-07-29 10:13:00,68.0,53.0,30.10,North,352,7.0,11.0,59,0.00,,,0.27,534.000000,,2013-07-29 14:13:00,
2013-07-29 10:29:00,68.0,53.0,30.10,North,352,7.0,11.0,59,0.00,,,0.27,534.000000,,2013-07-29 14:29:00,
2013-07-29 16:35:00,76.0,52.0,30.09,WNW,300,5.0,9.0,43,0.00,,,0.24,237.000000,,2013-07-29 20:35:00,
2013-07-29 17:19:00,76.0,52.0,30.09,WNW,300,5.0,9.0,43,0.00,,,0.24,237.000000,,2013-07-29 21:19:00,
2013-07-29 17:25:00,76.0,52.0,30.09,WNW,300,5.0,9.0,43,0.00,,,0.24,237.000000,,2013-07-29 21:25:00,
2013-07-29 18:38:00,75.0,51.0,30.09,WNW,301,4.0,7.0,43,0.00,,,0.24,239.000000,,2013-07-29 22:38:00,
2013-07-29 18:55:00,75.0,52.0,30.09,WNW,296,4.0,6.0,44,0.00,,,0.24,224.000000,,2013-07-29 22:55:00,
2013-07-29 19:06:00,75.0,52.0,30.10,WNW,303,3.0,4.0,44,0.00,,,0.24,168.000000,,2013-07-29 23:06:00,
2013-07-29 19:27:00,74.0,52.0,30.10,NW,308,3.0,6.0,46,0.00,,,0.24,113.000000,,2013-07-29 23:27:00,
2013-07-29 19:35:00,75.0,53.0,30.11,NNW,329,2.0,3.0,46,0.00,,,0.24,98.000000,,2013-07-29 23:35:00,
2013-07-29 19:55:00,74.0,55.0,30.12,NW,317,1.0,1.0,51,0.00,,,0.24,64.000000,,2013-07-29 23:55:00,
2013-07-29 20:08:00,73.0,54.0,30.12,West,278,0.0,1.0,51,0.00,,,0.24,43.000000,,2013-07-30 00:08:00,
2013-07-29 20:27:00,71.0,54.0,30.12,West,272,1.0,1.0,56,0.00,,,0.24,23.000000,,2013-07-30 00:27:00,
2013-07-29 20:48:00,69.0,53.0,30.14,WNW,302,1.0,1.0,57,0.00,,,0.24,1.000000,,2013-07-30 00:48:00,
2013-07-29 20:54:00,69.0,53.0,30.14,NW,314,2.0,2.0,57,0.00,,,0.24,0.000000,,2013-07-30 00:54:00,
2013-07-29 21:07:00,69.0,53.0,30.14,WNW,297,2.0,3.0,57,0.00,,,0.24,0.000000,,2013-07-30 01:07:00,
2013-07-29 21:17:00,69.0,53.0,30.14,WNW,299,2.0,3.0,57,0.00,,,0.24,0.000000,,2013-07-30 01:17:00,
2013-07-29 21:45:00,68.0,52.0,30.15,NW,316,1.0,2.0,57,0.00,,,0.24,0.000000,,2013-07-30 01:45:00,
2013-07-29 22:07:00,68.0,53.0,30.16,NW,318,2.0,2.0,59,0.00,,,0.24,0.000000,,2013-07-30 02:07:00,
2013-07-29 22:14:00,68.0,53.0,30.16,NW,319,2.0,2.0,59,0.00,,,0.24,0.000000,,2013-07-30 02:14:00,
2013-07-29 22:46:00,66.0,53.0,30.17,NW,314,2.0,2.0,64,0.00,,,0.24,0.000000,,2013-07-30 02:46:00,
2013-07-29 22:55:00,66.0,53.0,30.17,NW,313,2.0,3.0,63,0.00,,,0.24,0.000000,,2013-07-30 02:55:00,
2013-07-29 23:53:00,65.0,53.0,30.17,NNW,336,1.0,2.0,66,0.00,,,0.24,0.000000,,2013-07-30 03:53:00,